sensor_id;sensor_type;location;lat;lon;timestamp;pressure;altitude;pressure_sealevel;temperature;humidity
12247;BME280;6186;52.022;4.692;2024-03-02T00:00:08;99895.25;;;8.03;100.00
12247;BME280;6186;52.022;4.692;2024-03-02T00:02:33;99896.22;;;8.00;100.00
12247;BME280;6186;52.022;4.692;2024-03-02T00:04:59;99907.69;;;7.96;100.00
12247;BME280;6186;52.022;4.692;2024-03-02T00:07:24;99904.31;;;7.93;100.00
12247;BME280;6186;52.022;4.692;2024-03-02T00:09:53;99919.22;;;7.91;100.00
12247;BME280;6186;52.022;4.692;2024-03-02T00:12:18;99921.97;;;7.86;100.00
12247;BME280;6186;52.022;4.692;2024-03-02T00:14:44;99928.13;;;7.84;100.00
12247;BME280;6186;52.022;4.692;2024-03-02T00:17:17;99924.75;;;7.80;100.00
12247;BME280;6186;52.022;4.692;2024-03-02T00:19:46;99930.00;;;7.80;100.00
12247;BME280;6186;52.022;4.692;2024-03-02T00:22:11;99932.00;;;7.72;100.00
12247;BME280;6186;52.022;4.692;2024-03-02T00:24:37;99942.31;;;7.77;100.00
12247;BME280;6186;52.022;4.692;2024-03-02T00:27:04;99942.38;;;7.75;100.00
12247;BME280;6186;52.022;4.692;2024-03-02T00:29:30;99933.69;;;7.73;100.00
12247;BME280;6186;52.022;4.692;2024-03-02T00:31:55;99942.47;;;7.71;100.00
12247;BME280;6186;52.022;4.692;2024-03-02T00:34:21;99937.28;;;7.69;100.00
12247;BME280;6186;52.022;4.692;2024-03-02T00:36:46;99934.72;;;7.68;100.00
12247;BME280;6186;52.022;4.692;2024-03-02T00:39:12;99938.31;;;7.63;100.00
12247;BME280;6186;52.022;4.692;2024-03-02T00:41:41;99930.53;;;7.62;100.00
12247;BME280;6186;52.022;4.692;2024-03-02T00:44:07;99925.34;;;7.59;100.00
12247;BME280;6186;52.022;4.692;2024-03-02T00:46:36;99932.38;;;7.57;100.00
12247;BME280;6186;52.022;4.692;2024-03-02T00:49:03;99926.38;;;7.55;100.00
12247;BME280;6186;52.022;4.692;2024-03-02T00:51:30;99917.69;;;7.51;100.00
12247;BME280;6186;52.022;4.692;2024-03-02T00:53:59;99923.81;;;7.52;100.00
12247;BME280;6186;52.022;4.692;2024-03-02T00:56:25;99931.72;;;7.50;100.00
12247;BME280;6186;52.022;4.692;2024-03-02T00:58:50;99937.88;;;7.48;100.00
12247;BME280;6186;52.022;4.692;2024-03-02T01:01:16;99935.47;;;7.40;100.00
12247;BME280;6186;52.022;4.692;2024-03-02T01:03:42;99944.13;;;7.42;100.00
12247;BME280;6186;52.022;4.692;2024-03-02T01:06:07;99945.94;;;7.40;100.00
12247;BME280;6186;52.022;4.692;2024-03-02T01:08:36;99942.56;;;7.37;100.00
12247;BME280;6186;52.022;4.692;2024-03-02T01:11:03;99947.88;;;7.34;100.00
12247;BME280;6186;52.022;4.692;2024-03-02T01:13:28;99930.50;;;7.31;100.00
12247;BME280;6186;52.022;4.692;2024-03-02T01:15:53;99941.00;;;7.30;100.00
12247;BME280;6186;52.022;4.692;2024-03-02T01:18:19;99924.53;;;7.26;100.00
12247;BME280;6186;52.022;4.692;2024-03-02T01:20:44;99909.66;;;7.27;100.00
12247;BME280;6186;52.022;4.692;2024-03-02T01:23:09;99914.88;;;7.28;100.00
12247;BME280;6186;52.022;4.692;2024-03-02T01:25:34;99917.50;;;7.28;100.00
12247;BME280;6186;52.022;4.692;2024-03-02T01:28:00;99942.75;;;7.29;100.00
12247;BME280;6186;52.022;4.692;2024-03-02T01:30:25;99952.34;;;7.30;100.00
12247;BME280;6186;52.022;4.692;2024-03-02T01:32:50;99946.19;;;7.31;100.00
12247;BME280;6186;52.022;4.692;2024-03-02T01:35:15;99946.25;;;7.30;100.00
12247;BME280;6186;52.022;4.692;2024-03-02T01:37:41;99974.06;;;7.32;100.00
12247;BME280;6186;52.022;4.692;2024-03-02T01:40:07;99963.63;;;7.31;100.00
12247;BME280;6186;52.022;4.692;2024-03-02T01:42:32;99952.34;;;7.30;100.00
12247;BME280;6186;52.022;4.692;2024-03-02T01:44:57;99941.88;;;7.29;100.00
12247;BME280;6186;52.022;4.692;2024-03-02T01:47:22;99954.19;;;7.25;100.00
12247;BME280;6186;52.022;4.692;2024-03-02T01:49:48;99935.00;;;7.26;100.00
12247;BME280;6186;52.022;4.692;2024-03-02T01:52:13;99938.44;;;7.28;100.00
12247;BME280;6186;52.022;4.692;2024-03-02T01:54:38;99961.19;;;7.25;100.00
12247;BME280;6186;52.022;4.692;2024-03-02T01:57:03;99977.69;;;7.28;100.00
12247;BME280;6186;52.022;4.692;2024-03-02T01:59:29;99975.06;;;7.28;100.00
12247;BME280;6186;52.022;4.692;2024-03-02T02:01:54;99955.88;;;7.28;100.00
12247;BME280;6186;52.022;4.692;2024-03-02T02:04:19;99951.47;;;7.30;100.00
12247;BME280;6186;52.022;4.692;2024-03-02T02:06:45;99954.97;;;7.29;100.00
12247;BME280;6186;52.022;4.692;2024-03-02T02:09:10;99956.75;;;7.28;100.00
12247;BME280;6186;52.022;4.692;2024-03-02T02:11:35;99949.91;;;7.23;100.00
12247;BME280;6186;52.022;4.692;2024-03-02T02:14:01;99956.00;;;7.23;100.00
12247;BME280;6186;52.022;4.692;2024-03-02T02:16:26;99962.13;;;7.22;100.00
12247;BME280;6186;52.022;4.692;2024-03-02T02:18:51;99974.34;;;7.22;100.00
12247;BME280;6186;52.022;4.692;2024-03-02T02:21:16;99965.63;;;7.21;100.00
12247;BME280;6186;52.022;4.692;2024-03-02T02:23:42;99968.28;;;7.20;100.00
12247;BME280;6186;52.022;4.692;2024-03-02T02:26:07;99975.28;;;7.19;100.00
12247;BME280;6186;52.022;4.692;2024-03-02T02:28:32;99977.91;;;7.19;100.00
12247;BME280;6186;52.022;4.692;2024-03-02T02:30:57;99975.28;;;7.19;100.00
12247;BME280;6186;52.022;4.692;2024-03-02T02:33:22;99973.50;;;7.21;100.00
12247;BME280;6186;52.022;4.692;2024-03-02T02:35:48;99971.78;;;7.20;100.00
12247;BME280;6186;52.022;4.692;2024-03-02T02:38:13;99970.03;;;7.21;100.00
12247;BME280;6186;52.022;4.692;2024-03-02T02:40:38;99977.88;;;7.21;100.00
12247;BME280;6186;52.022;4.692;2024-03-02T02:43:03;99986.56;;;7.21;100.00
12247;BME280;6186;52.022;4.692;2024-03-02T02:45:29;99973.50;;;7.21;100.00
12247;BME280;6186;52.022;4.692;2024-03-02T02:47:54;99970.03;;;7.21;100.00
12247;BME280;6186;52.022;4.692;2024-03-02T02:50:19;99976.16;;;7.20;100.00
12247;BME280;6186;52.022;4.692;2024-03-02T02:52:44;99969.22;;;7.17;100.00
12247;BME280;6186;52.022;4.692;2024-03-02T02:55:11;99976.19;;;7.18;100.00
12247;BME280;6186;52.022;4.692;2024-03-02T02:57:39;99967.47;;;7.18;100.00
12247;BME280;6186;52.022;4.692;2024-03-02T03:00:14;99983.13;;;7.19;100.00
12247;BME280;6186;52.022;4.692;2024-03-02T03:02:41;99981.34;;;7.21;100.00
12247;BME280;6186;52.022;4.692;2024-03-02T03:05:08;99963.16;;;7.17;100.00
12247;BME280;6186;52.022;4.692;2024-03-02T03:07:34;99965.72;;;7.18;100.00
12247;BME280;6186;52.022;4.692;2024-03-02T03:09:59;99968.25;;;7.21;100.00
12247;BME280;6186;52.022;4.692;2024-03-02T03:12:24;99975.28;;;7.21;100.00
12247;BME280;6186;52.022;4.692;2024-03-02T03:14:49;99968.28;;;7.20;100.00
12247;BME280;6186;52.022;4.692;2024-03-02T03:17:15;99974.41;;;7.20;100.00
12247;BME280;6186;52.022;4.692;2024-03-02T03:19:40;99978.78;;;7.20;100.00
12247;BME280;6186;52.022;4.692;2024-03-02T03:22:05;99966.75;;;7.13;100.00
12247;BME280;6186;52.022;4.692;2024-03-02T03:24:30;99979.63;;;7.20;100.00
12247;BME280;6186;52.022;4.692;2024-03-02T03:26:55;99976.19;;;7.18;100.00
12247;BME280;6186;52.022;4.692;2024-03-02T03:29:21;99976.19;;;7.18;100.00
12247;BME280;6186;52.022;4.692;2024-03-02T03:31:46;99981.44;;;7.18;100.00
12247;BME280;6186;52.022;4.692;2024-03-02T03:34:11;99986.66;;;7.18;100.00
12247;BME280;6186;52.022;4.692;2024-03-02T03:36:36;99986.72;;;7.17;100.00
12247;BME280;6186;52.022;4.692;2024-03-02T03:39:02;99993.69;;;7.16;100.00
12247;BME280;6186;52.022;4.692;2024-03-02T03:41:27;99992.88;;;7.14;100.00
12247;BME280;6186;52.022;4.692;2024-03-02T03:43:52;99995.47;;;7.14;100.00
12247;BME280;6186;52.022;4.692;2024-03-02T03:46:17;99995.47;;;7.14;100.00
12247;BME280;6186;52.022;4.692;2024-03-02T03:48:42;99996.41;;;7.13;100.00
12247;BME280;6186;52.022;4.692;2024-03-02T03:51:08;99987.72;;;7.11;100.00
12247;BME280;6186;52.022;4.692;2024-03-02T03:53:33;99994.78;;;7.08;100.00
12247;BME280;6186;52.022;4.692;2024-03-02T03:55:58;99986.25;;;7.00;100.00
12247;BME280;6186;52.022;4.692;2024-03-02T03:58:23;99999.22;;;7.04;100.00
12247;BME280;6186;52.022;4.692;2024-03-02T04:00:49;100000.16;;;7.02;100.00
12247;BME280;6186;52.022;4.692;2024-03-02T04:03:14;100002.84;;;6.99;100.00
12247;BME280;6186;52.022;4.692;2024-03-02T04:05:39;100001.22;;;6.93;100.00
12247;BME280;6186;52.022;4.692;2024-03-02T04:08:04;100007.38;;;6.92;100.00
12247;BME280;6186;52.022;4.692;2024-03-02T04:10:30;100003.09;;;6.88;100.00
12247;BME280;6186;52.022;4.692;2024-03-02T04:12:55;100003.19;;;6.84;100.00
12247;BME280;6186;52.022;4.692;2024-03-02T04:15:20;100012.00;;;6.81;100.00
12247;BME280;6186;52.022;4.692;2024-03-02T04:17:45;100008.53;;;6.81;100.00
12247;BME280;6186;52.022;4.692;2024-03-02T04:20:11;100016.41;;;6.79;100.00
12247;BME280;6186;52.022;4.692;2024-03-02T04:22:36;100014.66;;;6.78;100.00
12247;BME280;6186;52.022;4.692;2024-03-02T04:25:01;100015.50;;;6.80;100.00
12247;BME280;6186;52.022;4.692;2024-03-02T04:27:27;100004.16;;;6.80;100.00
12247;BME280;6186;52.022;4.692;2024-03-02T04:29:52;100010.25;;;6.80;100.00
12247;BME280;6186;52.022;4.692;2024-03-02T04:32:17;100009.41;;;6.80;100.00
12247;BME280;6186;52.022;4.692;2024-03-02T04:34:43;100015.56;;;6.77;100.00
12247;BME280;6186;52.022;4.692;2024-03-02T04:37:08;100018.22;;;6.76;100.00
12247;BME280;6186;52.022;4.692;2024-03-02T04:39:35;100003.47;;;6.73;100.00
12247;BME280;6186;52.022;4.692;2024-03-02T04:42:00;100009.63;;;6.71;100.00
12247;BME280;6186;52.022;4.692;2024-03-02T04:44:25;100026.22;;;6.70;100.00
12247;BME280;6186;52.022;4.692;2024-03-02T04:46:51;100014.94;;;6.68;100.00
12247;BME280;6186;52.022;4.692;2024-03-02T04:49:16;100019.28;;;6.67;100.00
12247;BME280;6186;52.022;4.692;2024-03-02T04:51:41;100035.88;;;6.66;100.00
12247;BME280;6186;52.022;4.692;2024-03-02T04:54:06;100035.03;;;6.65;100.00
12247;BME280;6186;52.022;4.692;2024-03-02T04:56:31;100035.91;;;6.64;100.00
12247;BME280;6186;52.022;4.692;2024-03-02T04:58:57;100043.78;;;6.63;100.00
12247;BME280;6186;52.022;4.692;2024-03-02T05:01:22;100047.31;;;6.62;100.00
12247;BME280;6186;52.022;4.692;2024-03-02T05:03:47;100043.78;;;6.63;100.00
12247;BME280;6186;52.022;4.692;2024-03-02T05:06:13;100055.09;;;6.63;100.00
12247;BME280;6186;52.022;4.692;2024-03-02T05:08:38;100042.13;;;6.59;100.00
12247;BME280;6186;52.022;4.692;2024-03-02T05:11:03;100038.56;;;6.63;100.00
12247;BME280;6186;52.022;4.692;2024-03-02T05:13:28;100046.34;;;6.64;100.00
12247;BME280;6186;52.022;4.692;2024-03-02T05:15:54;100039.38;;;6.65;100.00
12247;BME280;6186;52.022;4.692;2024-03-02T05:18:19;100039.34;;;6.66;100.00
12247;BME280;6186;52.022;4.692;2024-03-02T05:20:44;100042.00;;;6.65;100.00
12247;BME280;6186;52.022;4.692;2024-03-02T05:23:09;100042.06;;;6.62;100.00
12247;BME280;6186;52.022;4.692;2024-03-02T05:25:34;100043.00;;;6.59;100.00
12247;BME280;6186;52.022;4.692;2024-03-02T05:28:00;100047.34;;;6.59;100.00
12247;BME280;6186;52.022;4.692;2024-03-02T05:30:25;100055.28;;;6.56;100.00
12247;BME280;6186;52.022;4.692;2024-03-02T05:32:50;100054.44;;;6.54;100.00
12247;BME280;6186;52.022;4.692;2024-03-02T05:35:15;100053.66;;;6.50;100.00
12247;BME280;6186;52.022;4.692;2024-03-02T05:37:40;100055.34;;;6.51;100.00
12247;BME280;6186;52.022;4.692;2024-03-02T05:40:06;100050.22;;;6.48;100.00
12247;BME280;6186;52.022;4.692;2024-03-02T05:42:32;100067.50;;;6.54;100.00
12247;BME280;6186;52.022;4.692;2024-03-02T05:44:57;100070.09;;;6.55;100.00
12247;BME280;6186;52.022;4.692;2024-03-02T05:47:22;100065.72;;;6.56;100.00
12247;BME280;6186;52.022;4.692;2024-03-02T05:49:47;100068.31;;;6.57;100.00
12247;BME280;6186;52.022;4.692;2024-03-02T05:52:12;100068.25;;;6.59;100.00
12247;BME280;6186;52.022;4.692;2024-03-02T05:54:38;100064.78;;;6.60;100.00
12247;BME280;6186;52.022;4.692;2024-03-02T05:57:03;100068.22;;;6.62;100.00
12247;BME280;6186;52.022;4.692;2024-03-02T05:59:28;100062.91;;;6.65;100.00
12247;BME280;6186;52.022;4.692;2024-03-02T06:01:53;100074.19;;;6.67;100.00
12247;BME280;6186;52.022;4.692;2024-03-02T06:04:18;100068.94;;;6.68;100.00
12247;BME280;6186;52.022;4.692;2024-03-02T06:06:44;100065.34;;;6.73;100.00
12247;BME280;6186;52.022;4.692;2024-03-02T06:09:09;100065.31;;;6.74;100.00
12247;BME280;6186;52.022;4.692;2024-03-02T06:11:35;100069.63;;;6.77;100.00
12247;BME280;6186;52.022;4.692;2024-03-02T06:14:00;100067.06;;;6.75;100.00
12247;BME280;6186;52.022;4.692;2024-03-02T06:16:26;100071.38;;;6.76;100.00
12247;BME280;6186;52.022;4.692;2024-03-02T06:18:51;100071.41;;;6.75;100.00
12247;BME280;6186;52.022;4.692;2024-03-02T06:21:16;100072.31;;;6.74;100.00
12247;BME280;6186;52.022;4.692;2024-03-02T06:23:41;100078.47;;;6.71;100.00
12247;BME280;6186;52.022;4.692;2024-03-02T06:26:07;100076.78;;;6.68;100.00
12247;BME280;6186;52.022;4.692;2024-03-02T06:28:32;100073.28;;;6.68;100.00
12247;BME280;6186;52.022;4.692;2024-03-02T06:30:57;100089.00;;;6.66;100.00
12247;BME280;6186;52.022;4.692;2024-03-02T06:33:22;100089.97;;;6.64;100.00
12247;BME280;6186;52.022;4.692;2024-03-02T06:35:47;100088.22;;;6.63;100.00
12247;BME280;6186;52.022;4.692;2024-03-02T06:38:13;100096.16;;;6.60;100.00
12247;BME280;6186;52.022;4.692;2024-03-02T06:40:38;100094.41;;;6.59;100.00
12247;BME280;6186;52.022;4.692;2024-03-02T06:43:04;100086.69;;;6.54;100.00
12247;BME280;6186;52.022;4.692;2024-03-02T06:45:29;100092.63;;;6.61;100.00
12247;BME280;6186;52.022;4.692;2024-03-02T06:47:54;100104.03;;;6.58;100.00
12247;BME280;6186;52.022;4.692;2024-03-02T06:50:19;100093.56;;;6.58;100.00
12247;BME280;6186;52.022;4.692;2024-03-02T06:52:44;100094.38;;;6.62;100.00
12247;BME280;6186;52.022;4.692;2024-03-02T06:55:10;100103.94;;;6.61;100.00
12247;BME280;6186;52.022;4.692;2024-03-02T06:57:35;100099.59;;;6.60;100.00
12247;BME280;6186;52.022;4.692;2024-03-02T07:00:00;100106.59;;;6.60;100.00
12247;BME280;6186;52.022;4.692;2024-03-02T07:02:25;100108.38;;;6.58;100.00
12247;BME280;6186;52.022;4.692;2024-03-02T07:04:50;100105.78;;;6.58;100.00
12247;BME280;6186;52.022;4.692;2024-03-02T07:07:16;100111.03;;;6.56;100.00
12247;BME280;6186;52.022;4.692;2024-03-02T07:09:41;100116.28;;;6.55;100.00
12247;BME280;6186;52.022;4.692;2024-03-02T07:12:06;100091.28;;;6.42;100.00
12247;BME280;6186;52.022;4.692;2024-03-02T07:14:32;100115.44;;;6.53;100.00
12247;BME280;6186;52.022;4.692;2024-03-02T07:16:57;100118.13;;;6.50;100.00
12247;BME280;6186;52.022;4.692;2024-03-02T07:19:22;100132.13;;;6.49;100.00
12247;BME280;6186;52.022;4.692;2024-03-02T07:21:47;100119.91;;;6.48;100.00
12247;BME280;6186;52.022;4.692;2024-03-02T07:24:12;100126.06;;;6.45;100.00
12247;BME280;6186;52.022;4.692;2024-03-02T07:26:38;100130.38;;;6.48;100.00
12247;BME280;6186;52.022;4.692;2024-03-02T07:29:03;100138.22;;;6.48;100.00
12247;BME280;6186;52.022;4.692;2024-03-02T07:31:28;100136.41;;;6.51;100.00
12247;BME280;6186;52.022;4.692;2024-03-02T07:33:53;100138.97;;;6.54;100.00
12247;BME280;6186;52.022;4.692;2024-03-02T07:36:19;100144.03;;;6.60;100.00
12247;BME280;6186;52.022;4.692;2024-03-02T07:38:44;100133.63;;;6.59;100.00
12247;BME280;6186;52.022;4.692;2024-03-02T07:41:09;100138.78;;;6.63;100.00
12247;BME280;6186;52.022;4.692;2024-03-02T07:43:34;100138.78;;;6.63;100.00
12247;BME280;6186;52.022;4.692;2024-03-02T07:46:00;100147.50;;;6.62;100.00
12247;BME280;6186;52.022;4.692;2024-03-02T07:48:25;100148.41;;;6.61;100.00
12247;BME280;6186;52.022;4.692;2024-03-02T07:50:51;100159.69;;;6.63;100.00
12247;BME280;6186;52.022;4.692;2024-03-02T07:53:16;100158.78;;;6.66;100.00
12247;BME280;6186;52.022;4.692;2024-03-02T07:55:41;100154.31;;;6.71;100.00
12247;BME280;6186;52.022;4.692;2024-03-02T07:58:07;100152.41;;;6.79;100.00
12247;BME280;6186;52.022;4.692;2024-03-02T08:00:32;100148.00;;;6.81;100.00
12247;BME280;6186;52.022;4.692;2024-03-02T08:02:58;100152.00;;;6.97;100.00
12247;BME280;6186;52.022;4.692;2024-03-02T08:05:23;100159.63;;;7.08;100.00
12247;BME280;6186;52.022;4.692;2024-03-02T08:07:49;100157.63;;;7.17;100.00
12247;BME280;6186;52.022;4.692;2024-03-02T08:10:14;100157.47;;;7.26;100.00
12247;BME280;6186;52.022;4.692;2024-03-02T08:12:39;100146.00;;;7.32;100.00
12247;BME280;6186;52.022;4.692;2024-03-02T08:15:05;100149.34;;;7.37;100.00
12247;BME280;6186;52.022;4.692;2024-03-02T08:17:31;100144.81;;;7.45;100.00
12247;BME280;6186;52.022;4.692;2024-03-02T08:19:56;100145.50;;;7.51;100.00
12247;BME280;6186;52.022;4.692;2024-03-02T08:22:23;100145.41;;;7.56;100.00
12247;BME280;6186;52.022;4.692;2024-03-02T08:24:48;100137.41;;;7.62;100.00
12247;BME280;6186;52.022;4.692;2024-03-02T08:27:14;100146.03;;;7.66;100.00
12247;BME280;6186;52.022;4.692;2024-03-02T08:29:39;100140.66;;;7.72;100.00
12247;BME280;6186;52.022;4.692;2024-03-02T08:32:05;100144.88;;;7.77;100.00
12247;BME280;6186;52.022;4.692;2024-03-02T08:34:30;100142.13;;;7.82;100.00
12247;BME280;6186;52.022;4.692;2024-03-02T08:36:56;100134.94;;;7.90;100.00
12247;BME280;6186;52.022;4.692;2024-03-02T08:39:21;100132.06;;;8.00;100.00
12247;BME280;6186;52.022;4.692;2024-03-02T08:41:47;100129.16;;;8.11;100.00
12247;BME280;6186;52.022;4.692;2024-03-02T08:44:13;100140.34;;;8.17;100.00
12247;BME280;6186;52.022;4.692;2024-03-02T08:46:41;100144.56;;;8.23;100.00
12247;BME280;6186;52.022;4.692;2024-03-02T08:49:06;100147.84;;;8.31;100.00
12247;BME280;6186;52.022;4.692;2024-03-02T08:51:32;100139.78;;;8.38;100.00
12247;BME280;6186;52.022;4.692;2024-03-02T08:53:57;100150.81;;;8.51;100.00
12247;BME280;6186;52.022;4.692;2024-03-02T08:56:23;100139.06;;;8.64;100.00
12247;BME280;6186;52.022;4.692;2024-03-02T08:58:49;100155.00;;;8.87;100.00
12247;BME280;6186;52.022;4.692;2024-03-02T09:01:14;100159.94;;;8.98;100.00
12247;BME280;6186;52.022;4.692;2024-03-02T09:03:41;100159.53;;;9.11;100.00
12247;BME280;6186;52.022;4.692;2024-03-02T09:06:06;100150.06;;;9.33;100.00
12247;BME280;6186;52.022;4.692;2024-03-02T09:08:31;100157.28;;;9.55;100.00
12247;BME280;6186;52.022;4.692;2024-03-02T09:10:57;100148.00;;;9.71;100.00
12247;BME280;6186;52.022;4.692;2024-03-02T09:13:22;100153.88;;;10.05;100.00
12247;BME280;6186;52.022;4.692;2024-03-02T09:15:47;100164.03;;;10.40;100.00
12247;BME280;6186;52.022;4.692;2024-03-02T09:18:13;100163.47;;;10.80;100.00
12247;BME280;6186;52.022;4.692;2024-03-02T09:20:38;100169.28;;;11.11;100.00
12247;BME280;6186;52.022;4.692;2024-03-02T09:23:03;100174.00;;;11.48;100.00
12247;BME280;6186;52.022;4.692;2024-03-02T09:25:29;100162.50;;;11.72;100.00
12247;BME280;6186;52.022;4.692;2024-03-02T09:27:54;100172.44;;;11.87;100.00
12247;BME280;6186;52.022;4.692;2024-03-02T09:30:19;100157.28;;;11.92;100.00
12247;BME280;6186;52.022;4.692;2024-03-02T09:32:44;100163.78;;;12.05;100.00
12247;BME280;6186;52.022;4.692;2024-03-02T09:35:10;100169.75;;;11.88;100.00
12247;BME280;6186;52.022;4.692;2024-03-02T09:37:35;100170.31;;;11.75;100.00
12247;BME280;6186;52.022;4.692;2024-03-02T09:40:00;100169.13;;;11.82;100.00
12247;BME280;6186;52.022;4.692;2024-03-02T09:42:26;100176.41;;;11.97;100.00
12247;BME280;6186;52.022;4.692;2024-03-02T09:44:52;100157.06;;;11.98;100.00
12247;BME280;6186;52.022;4.692;2024-03-02T09:47:17;100159.88;;;12.13;100.00
12247;BME280;6186;52.022;4.692;2024-03-02T09:49:42;100162.72;;;12.49;100.00
12247;BME280;6186;52.022;4.692;2024-03-02T09:52:08;100172.84;;;12.78;100.00
12247;BME280;6186;52.022;4.692;2024-03-02T09:54:33;100168.22;;;13.03;100.00
12247;BME280;6186;52.022;4.692;2024-03-02T09:56:58;100174.84;;;13.12;100.00
12247;BME280;6186;52.022;4.692;2024-03-02T09:59:24;100185.84;;;13.21;100.00
12247;BME280;6186;52.022;4.692;2024-03-02T10:02:00;100169.72;;;13.28;100.00
12247;BME280;6186;52.022;4.692;2024-03-02T10:04:26;100183.28;;;13.20;100.00
12247;BME280;6186;52.022;4.692;2024-03-02T10:07:09;100177.84;;;13.04;100.00
12247;BME280;6186;52.022;4.692;2024-03-02T10:09:35;100180.59;;;13.01;100.00
12247;BME280;6186;52.022;4.692;2024-03-02T10:12:07;100190.72;;;13.12;100.00
12247;BME280;6186;52.022;4.692;2024-03-02T10:14:33;100184.78;;;13.26;100.00
12247;BME280;6186;52.022;4.692;2024-03-02T10:17:11;100173.13;;;13.48;100.00
12247;BME280;6186;52.022;4.692;2024-03-02T10:19:37;100174.59;;;13.72;100.00
12247;BME280;6186;52.022;4.692;2024-03-02T10:22:05;100186.25;;;14.04;100.00
12247;BME280;6186;52.022;4.692;2024-03-02T10:24:38;100164.34;;;14.36;100.00
12247;BME280;6186;52.022;4.692;2024-03-02T10:27:23;100150.91;;;14.56;100.00
12247;BME280;6186;52.022;4.692;2024-03-02T10:29:51;100156.47;;;14.84;100.00
12247;BME280;6186;52.022;4.692;2024-03-02T10:32:16;100124.38;;;15.06;100.00
12247;BME280;6186;52.022;4.692;2024-03-02T10:34:45;100149.03;;;15.55;100.00
12247;BME280;6186;52.022;4.692;2024-03-02T10:37:12;100143.25;;;15.93;100.00
12247;BME280;6186;52.022;4.692;2024-03-02T10:39:37;100129.91;;;15.95;100.00
12247;BME280;6186;52.022;4.692;2024-03-02T10:42:03;100138.66;;;16.11;100.00
12247;BME280;6186;52.022;4.692;2024-03-02T10:44:30;100134.75;;;16.32;100.00
12247;BME280;6186;52.022;4.692;2024-03-02T10:46:56;100139.97;;;16.63;100.00
12247;BME280;6186;52.022;4.692;2024-03-02T10:49:23;100138.81;;;16.96;100.00
12247;BME280;6186;52.022;4.692;2024-03-02T10:51:48;100130.97;;;17.35;100.00
12247;BME280;6186;52.022;4.692;2024-03-02T10:54:13;100127.88;;;17.69;100.00
12247;BME280;6186;52.022;4.692;2024-03-02T10:56:40;100119.56;;;17.73;100.00
12247;BME280;6186;52.022;4.692;2024-03-02T10:59:26;100120.25;;;17.77;100.00
12247;BME280;6186;52.022;4.692;2024-03-02T11:01:56;100119.41;;;17.62;100.00
12247;BME280;6186;52.022;4.692;2024-03-02T11:04:24;100113.38;;;17.46;100.00
12247;BME280;6186;52.022;4.692;2024-03-02T11:06:50;100120.13;;;17.52;100.00
12247;BME280;6186;52.022;4.692;2024-03-02T11:09:19;100109.28;;;17.55;100.00
12247;BME280;6186;52.022;4.692;2024-03-02T11:11:49;100114.19;;;17.88;100.00
12247;BME280;6186;52.022;4.692;2024-03-02T11:14:21;100112.44;;;18.13;100.00
12247;BME280;6186;52.022;4.692;2024-03-02T11:16:49;100116.53;;;18.31;100.00
12247;BME280;6186;52.022;4.692;2024-03-02T11:19:16;100106.28;;;18.38;100.00
12247;BME280;6186;52.022;4.692;2024-03-02T11:21:42;100113.91;;;18.56;100.00
12247;BME280;6186;52.022;4.692;2024-03-02T11:26:48;100116.91;;;18.77;100.00
12247;BME280;6186;52.022;4.692;2024-03-02T11:32:04;100124.28;;;19.35;100.00
12247;BME280;6186;52.022;4.692;2024-03-02T11:36:57;100107.50;;;19.69;100.00
12247;BME280;6186;52.022;4.692;2024-03-02T11:39:22;100100.28;;;19.58;100.00
12247;BME280;6186;52.022;4.692;2024-03-02T11:41:48;100105.66;;;19.46;100.00
12247;BME280;6186;52.022;4.692;2024-03-02T11:44:14;100099.38;;;19.70;100.00
12247;BME280;6186;52.022;4.692;2024-03-02T11:46:40;100091.31;;;19.83;100.00
12247;BME280;6186;52.022;4.692;2024-03-02T11:49:05;100102.72;;;19.85;100.00
12247;BME280;6186;52.022;4.692;2024-03-02T11:51:33;100090.06;;;20.11;100.00
12247;BME280;6186;52.022;4.692;2024-03-02T11:53:59;100083.50;;;20.49;100.00
12247;BME280;6186;52.022;4.692;2024-03-02T11:56:26;100095.03;;;20.61;100.00
12247;BME280;6186;52.022;4.692;2024-03-02T11:58:53;100080.97;;;20.59;100.00
12247;BME280;6186;52.022;4.692;2024-03-02T12:01:19;100071.34;;;20.56;100.00
12247;BME280;6186;52.022;4.692;2024-03-02T12:03:45;100085.94;;;20.63;100.00
12247;BME280;6186;52.022;4.692;2024-03-02T12:06:11;100065.13;;;20.45;100.00
12247;BME280;6186;52.022;4.692;2024-03-02T12:08:36;100060.41;;;20.48;100.00
12247;BME280;6186;52.022;4.692;2024-03-02T12:11:02;100065.78;;;20.82;100.00
12247;BME280;6186;52.022;4.692;2024-03-02T12:13:27;100058.72;;;21.14;100.00
12247;BME280;6186;52.022;4.692;2024-03-02T12:15:56;100060.69;;;21.12;100.00
12247;BME280;6186;52.022;4.692;2024-03-02T12:18:21;100053.59;;;20.89;100.00
12247;BME280;6186;52.022;4.692;2024-03-02T12:20:48;100056.34;;;21.31;100.00
12247;BME280;6186;52.022;4.692;2024-03-02T12:23:14;100041.88;;;21.34;100.00
12247;BME280;6186;52.022;4.692;2024-03-02T12:25:39;100031.84;;;21.15;100.00
12247;BME280;6186;52.022;4.692;2024-03-02T12:28:05;100036.56;;;21.23;100.00
12247;BME280;6186;52.022;4.692;2024-03-02T12:30:31;100030.38;;;21.11;100.00
12247;BME280;6186;52.022;4.692;2024-03-02T12:32:59;100030.25;;;21.13;100.00
12247;BME280;6186;52.022;4.692;2024-03-02T12:35:25;100030.34;;;21.22;100.00
12247;BME280;6186;52.022;4.692;2024-03-02T12:37:52;100044.44;;;21.67;100.00
12247;BME280;6186;52.022;4.692;2024-03-02T12:40:18;100030.78;;;21.70;100.00
12247;BME280;6186;52.022;4.692;2024-03-02T12:42:45;100043.41;;;21.79;100.00
12247;BME280;6186;52.022;4.692;2024-03-02T12:45:11;100040.53;;;21.71;100.00
12247;BME280;6186;52.022;4.692;2024-03-02T12:47:37;100033.53;;;21.91;100.00
12247;BME280;6186;52.022;4.692;2024-03-02T12:50:04;100039.53;;;21.83;100.00
12247;BME280;6186;52.022;4.692;2024-03-02T12:52:30;100050.06;;;21.64;100.00
12247;BME280;6186;52.022;4.692;2024-03-02T12:54:56;100035.16;;;21.71;100.00
12247;BME280;6186;52.022;4.692;2024-03-02T12:57:21;100029.16;;;21.79;100.00
12247;BME280;6186;52.022;4.692;2024-03-02T12:59:47;100026.34;;;21.91;100.00